• Join FlightAware (Why Join?)
  • Login
  • US Flag 
05:27PM EST


 

Airport Tracker/Info


-or-


 

Live Flight TrackerFlight Track Log ✈ JIA2373 ✈ 24-Jul-2013 ✈ KPGV - KCLT

Flight Track Log - Related Links

Times and Time Zones

All times are in EDT time to prevent confusion due to time zone crossing. See the JIA2373 flight status page for this flight to view local times or setup timezone preferences in your user account.

Time Position Orientation Groundspeed Altitude Reporting Facility
EDT Latitude Longitude Course Direction KTS MPH feet Rate Location/Type
10:54AM 35.7258 -77.4878 266° West 341 392 4,900  Level Washington Center
10:55AM 35.7203 -77.5772 266° West 293 337 6,700 2,160 Climbing Washington Center
10:56AM 35.7269 -77.6797 275° West 284 327 9,200 2,280 Climbing Washington Center
10:57AM 35.7336 -77.7747 275° West 284 327 11,300 2,220 Climbing Washington Center
10:58AM 35.7336 -77.8769 270° West 297 342 13,800 2,220 Climbing Washington Center
10:59AM 35.7381 -77.9692 273° West 297 342 15,800 1,980 Climbing Washington Center
11:00AM 35.7442 -78.0794 274° West 297 342 17,800 2,040 Climbing Washington Center
11:01AM 35.7503 -78.1847 274° West 297 342 19,900 1,620 Climbing Washington Center
11:02AM 35.7542 -78.2897 273° West 308 354 21,200 1,020 Climbing Washington Center
11:03AM 35.7603 -78.3897 274° West 324 373 22,000 360 Climbing Washington Center
11:04AM 35.7675 -78.5256 274° West 349 402 22,000  Level Washington Center
11:05AM 35.7725 -78.6589 273° West 372 428 22,000  Level Washington Center
11:06AM 35.7775 -78.7872 273° West 387 445 22,000  Level Washington Center
11:07AM 35.7839 -78.9308 273° West 398 458 22,000  Level Washington Center
11:08AM 35.7889 -79.0564 273° West 405 466 22,000  Level Washington Center
11:09AM 35.7950 -79.1975 273° West 417 480 22,000 -1,260 Level Washington Center
11:11AM 35.8094 -79.5525 273° West 403 464 17,800 -1,500 Descending Atlanta Center
11:12AM 35.8117 -79.6728 271° West 403 464 17,000 -420 Descending Atlanta Center
11:13AM 35.8100 -79.8061 269° West 398 458 17,000 -60 Level Atlanta Center
11:14AM 35.8103 -79.9342 270° West 392 451 16,900 -360 Descending Atlanta Center
11:15AM 35.8100 -80.0519 270° West 372 428 16,300 -660 Descending Atlanta Center
11:16AM 35.8097 -80.1772 270° West 343 395 15,600 -660 Descending Atlanta Center
11:17AM 35.8097 -80.2414 270° West 332 382 15,300 -720 Descending Atlanta Center
11:17AM 35.8100 -80.3181 270° West 330 380 14,700 -900 Descending Atlanta Center
11:18AM 35.8103 -80.3975 270° West 332 382 14,000 -1,020 Descending Atlanta Center
11:19AM 35.7647 -80.4789 235° Southwest 282 325 13,000 -900 Descending Atlanta Center
11:20AM 35.6911 -80.5358 212° Southwest 289 333 12,200 -660 Descending Atlanta Center
11:21AM 35.6200 -80.5950 214° Southwest 311 358 11,700 -540 Descending Atlanta Center
11:22AM 35.5506 -80.6542 215° Southwest 317 365 11,200 -540 Descending Atlanta Center
11:23AM 35.5139 -80.6861 215° Southwest 303 349 10,900 -480 Descending Atlanta Center
11:24AM 35.4467 -80.7450 216° Southwest 299 344 10,500 -360 Descending Atlanta Center
11:25AM 35.3772 -80.7989 212° Southwest 292 336 10,200 -420 Descending Atlanta Center
11:26AM 35.3031 -80.8425 206° Southwest 285 328 9,700 -660 Descending Atlanta Center
11:27AM 35.2239 -80.8378 177° South 254 292 8,800 -840 Descending Atlanta Center
11:28AM 35.1694 -80.8322 175° South 237 273 8,100 -1,260 Descending Atlanta Center
11:29AM 35.0961 -80.8250 175° South 243 280 6,500 -1,380 Descending Atlanta Center
11:30AM 35.0272 -80.8200 177° South 247 284 5,300 -1,200 Descending Atlanta Center
11:31AM 34.9889 -80.8747 229° Southwest 234 269 4,000 -1,200 Descending Atlanta Center